Time;durP1;ratioP1;P1;durP2;ratioP2;P2;SDS_P1;SDS_P2;PMS_P1;PMS_P2;Temp;Humidity;BMP_temperature;BMP_pressure;BME280_temperature;BME280_humidity;BME280_pressure;Samples;Min_cycle;Max_cycle;Signal;HPM_P1;HPM_P2
2023/04/12 00:01:39;;;;;;;;;;;;;;;;;;5080638;28;20019;-60
2023/04/12 00:04:05;;;;;;;;;;;;;;;;;;5072095;28;19912;-60
2023/04/12 00:06:33;;;;;;;;;;;;;;;;;;5077190;28;19966;-60
2023/04/12 00:08:59;;;;;;;;;;;;;;;;;;5091766;28;19974;-60
2023/04/12 00:11:27;;;;;;;;;;;;;;;;;;5091653;28;20337;-60
2023/04/12 00:13:53;;;;;;;;;;;;;;;;;;5090842;28;19916;-60
2023/04/12 00:16:19;;;;;;;;;;;;;;;;;;5091783;28;19955;-60
2023/04/12 00:18:45;;;;;;;;;;;;;;;;;;5089500;28;20326;-60
2023/04/12 00:21:10;;;;;;;;;;;;;;;;;;5091579;28;19912;-60
2023/04/12 00:23:36;;;;;;;;;;;;;;;;;;5091835;28;19961;-60
2023/04/12 00:26:02;;;;;;;;;;;;;;;;;;5091924;28;20367;-60
2023/04/12 00:28:28;;;;;;;;;;;;;;;;;;5091854;28;19924;-60
2023/04/12 00:30:54;;;;;;;;;;;;;;;;;;5084419;28;20383;-60
2023/04/12 00:33:20;;;;;;;;;;;;;;;;;;5082705;28;19912;-60
2023/04/12 00:35:46;;;;;;;;;;;;;;;;;;5089807;28;19957;-60
2023/04/12 00:38:14;;;;;;;;;;;;;;;;;;5095385;28;20440;-59
2023/04/12 00:40:40;;;;;;;;;;;;;;;;;;5095309;28;19912;-59
2023/04/12 00:43:06;;;;;;;;;;;;;;;;;;5093021;28;19919;-60
2023/04/12 00:45:32;;;;;;;;;;;;;;;;;;5095066;28;20031;-60
2023/04/12 00:47:58;;;;;;;;;;;;;;;;;;5094561;28;20011;-59
2023/04/12 00:50:24;;;;;;;;;;;;;;;;;;5083100;28;19948;-60
2023/04/12 00:52:50;;;;;;;;;;;;;;;;;;5086572;28;20454;-59
2023/04/12 00:55:16;;;;;;;;;;;;;;;;;;5095423;28;20003;-59
2023/04/12 00:57:42;;;;;;;;;;;;;;;;;;5094490;28;19916;-59
2023/04/12 01:00:11;;;;;;;;;;;;;;;;;;5094823;28;19958;-60
2023/04/12 01:02:38;;;;;;;;;;;;;;;;;;5094918;28;20437;-60
2023/04/12 01:05:04;;;;;;;;;;;;;;;;;;5094474;28;19916;-60
2023/04/12 01:07:30;;;;;;;;;;;;;;;;;;5094049;28;19958;-60
2023/04/12 01:09:56;;;;;;;;;;;;;;;;;;5085778;28;19924;-59
2023/04/12 01:12:22;;;;;;;;;;;;;;;;;;5076743;28;19916;-60
2023/04/12 01:14:48;;;;;;;;;;;;;;;;;;5086824;28;20008;-60
2023/04/12 01:17:16;;;;;;;;;;;;;;;;;;5074273;28;19912;-60
2023/04/12 01:19:44;;;;;;;;;;;;;;;;;;5074136;28;19908;-60
2023/04/12 01:22:10;;;;;;;;;;;;;;;;;;5075249;28;19913;-60
2023/04/12 01:24:36;;;;;;;;;;;;;;;;;;5074510;28;19909;-60
2023/04/12 01:27:02;;;;;;;;;;;;;;;;;;5086549;28;19950;-60
2023/04/12 01:29:28;;;;;;;;;;;;;;;;;;5092296;28;19912;-60
2023/04/12 01:31:54;;;;;;;;;;;;;;;;;;5091068;28;19968;-59
2023/04/12 01:34:20;;;;;;;;;;;;;;;;;;5092895;28;19951;-60
2023/04/12 01:36:46;;;;;;;;;;;;;;;;;;5094094;28;20430;-59
2023/04/12 01:39:12;;;;;;;;;;;;;;;;;;5081252;28;19991;-60
2023/04/12 01:41:38;;;;;;;;;;;;;;;;;;5089907;28;20049;-59
2023/04/12 01:44:03;;;;;;;;;;;;;;;;;;5084959;28;20379;-60
2023/04/12 01:46:31;;;;;;;;;;;;;;;;;;5073233;28;19962;-59
2023/04/12 01:48:57;;;;;;;;;;;;;;;;;;5088679;28;20007;-59
2023/04/12 01:51:23;;;;;;;;;;;;;;;;;;5093760;28;19999;-60
2023/04/12 01:53:49;;;;;;;;;;;;;;;;;;5093628;28;19908;-60
2023/04/12 01:56:15;;;;;;;;;;;;;;;;;;5076846;28;19912;-60
2023/04/12 01:58:41;;;;;;;;;;;;;;;;;;5090940;28;19962;-60
2023/04/12 02:01:06;;;;;;;;;;;;;;;;;;5090895;28;20378;-59
2023/04/12 02:03:32;;;;;;;;;;;;;;;;;;5091465;28;19961;-59
2023/04/12 02:05:58;;;;;;;;;;;;;;;;;;5090600;28;20023;-59
2023/04/12 02:08:24;;;;;;;;;;;;;;;;;;5086301;28;19915;-60
2023/04/12 02:10:50;;;;;;;;;;;;;;;;;;5091253;28;19924;-59
2023/04/12 02:13:19;;;;;;;;;;;;;;;;;;5092197;28;19951;-60
2023/04/12 02:15:45;;;;;;;;;;;;;;;;;;5087726;28;20275;-60
2023/04/12 02:18:12;;;;;;;;;;;;;;;;;;5087138;28;19916;-60
2023/04/12 02:20:39;;;;;;;;;;;;;;;;;;5091480;28;19912;-60
2023/04/12 02:23:05;;;;;;;;;;;;;;;;;;5082173;28;19919;-59
2023/04/12 02:25:32;;;;;;;;;;;;;;;;;;5091501;28;19923;-60
2023/04/12 02:27:58;;;;;;;;;;;;;;;;;;5090756;28;19912;-59
2023/04/12 02:30:24;;;;;;;;;;;;;;;;;;5092860;28;20007;-60
2023/04/12 02:32:50;;;;;;;;;;;;;;;;;;5079769;28;20006;-59
2023/04/12 02:35:19;;;;;;;;;;;;;;;;;;5080935;28;19916;-59
2023/04/12 02:37:45;;;;;;;;;;;;;;;;;;5084441;28;19961;-60
2023/04/12 02:40:13;;;;;;;;;;;;;;;;;;5091761;28;19919;-60
2023/04/12 02:42:39;;;;;;;;;;;;;;;;;;5091497;28;20007;-60
2023/04/12 02:45:05;;;;;;;;;;;;;;;;;;5092804;28;20007;-60
2023/04/12 02:47:30;;;;;;;;;;;;;;;;;;5083208;28;19959;-60
2023/04/12 02:49:56;;;;;;;;;;;;;;;;;;5089716;28;20015;-60
2023/04/12 02:52:22;;;;;;;;;;;;;;;;;;5087686;28;19912;-60
2023/04/12 02:54:48;;;;;;;;;;;;;;;;;;5091179;28;19911;-59
2023/04/12 02:57:15;;;;;;;;;;;;;;;;;;5091562;28;20667;-59
2023/04/12 02:59:40;;;;;;;;;;;;;;;;;;5090896;28;19948;-59
2023/04/12 03:02:06;;;;;;;;;;;;;;;;;;5090977;28;19944;-60
2023/04/12 03:04:32;;;;;;;;;;;;;;;;;;5091410;28;20371;-60
2023/04/12 03:06:58;;;;;;;;;;;;;;;;;;5081722;28;19912;-60
2023/04/12 03:09:24;;;;;;;;;;;;;;;;;;5092080;28;19930;-60
2023/04/12 03:11:50;;;;;;;;;;;;;;;;;;5092425;28;19920;-60
2023/04/12 03:14:16;;;;;;;;;;;;;;;;;;5091677;28;20049;-60
2023/04/12 03:16:42;;;;;;;;;;;;;;;;;;5092315;28;19920;-60
2023/04/12 03:19:08;;;;;;;;;;;;;;;;;;5092729;28;19912;-60
2023/04/12 03:21:34;;;;;;;;;;;;;;;;;;5091137;28;19999;-60
2023/04/12 03:24:00;;;;;;;;;;;;;;;;;;5092114;28;19916;-60
2023/04/12 03:26:26;;;;;;;;;;;;;;;;;;5092465;28;20346;-60
2023/04/12 03:28:52;;;;;;;;;;;;;;;;;;5091725;28;19919;-60
2023/04/12 03:31:20;;;;;;;;;;;;;;;;;;5092106;28;19940;-60
2023/04/12 03:33:46;;;;;;;;;;;;;;;;;;5092729;28;19912;-60
2023/04/12 03:36:12;;;;;;;;;;;;;;;;;;5092546;28;19914;-60
2023/04/12 03:38:38;;;;;;;;;;;;;;;;;;5090903;28;20318;-60
2023/04/12 03:41:04;;;;;;;;;;;;;;;;;;5090002;28;19943;-59
2023/04/12 03:43:34;;;;;;;;;;;;;;;;;;5091471;28;19944;-59
2023/04/12 03:46:00;;;;;;;;;;;;;;;;;;5089925;28;20011;-59
2023/04/12 03:48:26;;;;;;;;;;;;;;;;;;5091812;28;20436;-60
2023/04/12 03:50:53;;;;;;;;;;;;;;;;;;5091840;28;19916;-60
2023/04/12 03:53:19;;;;;;;;;;;;;;;;;;5091714;28;20533;-60
2023/04/12 03:55:45;;;;;;;;;;;;;;;;;;5077995;28;20312;-60
2023/04/12 03:58:12;;;;;;;;;;;;;;;;;;5088787;28;19991;-60
2023/04/12 04:00:38;;;;;;;;;;;;;;;;;;5084225;28;19959;-60
2023/04/12 04:03:04;;;;;;;;;;;;;;;;;;5069508;28;20600;-60
2023/04/12 04:05:30;;;;;;;;;;;;;;;;;;5079007;28;19959;-60
2023/04/12 04:07:59;;;;;;;;;;;;;;;;;;5076151;28;19943;-60
2023/04/12 04:10:25;;;;;;;;;;;;;;;;;;5090428;28;19920;-60
2023/04/12 04:12:51;;;;;;;;;;;;;;;;;;5087343;28;19959;-60
2023/04/12 04:15:17;;;;;;;;;;;;;;;;;;5090747;28;19908;-60
2023/04/12 04:17:44;;;;;;;;;;;;;;;;;;5094900;28;19908;-60
2023/04/12 04:20:12;;;;;;;;;;;;;;;;;;5094771;28;19908;-59
2023/04/12 04:22:38;;;;;;;;;;;;;;;;;;5078141;28;19967;-60
2023/04/12 04:25:04;;;;;;;;;;;;;;;;;;5083926;28;19955;-60
2023/04/12 04:27:33;;;;;;;;;;;;;;;;;;5094928;28;19909;-60
2023/04/12 04:30:01;;;;;;;;;;;;;;;;;;5084906;28;20358;-60
2023/04/12 04:32:27;;;;;;;;;;;;;;;;;;5080466;28;19916;-60
2023/04/12 04:34:53;;;;;;;;;;;;;;;;;;5093530;28;19954;-60
2023/04/12 04:37:20;;;;;;;;;;;;;;;;;;5080106;28;19916;-60
2023/04/12 04:39:46;;;;;;;;;;;;;;;;;;5088507;28;20383;-59
2023/04/12 04:42:12;;;;;;;;;;;;;;;;;;5090651;28;19939;-60
2023/04/12 04:44:37;;;;;;;;;;;;;;;;;;5088369;28;19956;-60
2023/04/12 04:47:03;;;;;;;;;;;;;;;;;;5090084;28;19918;-60
2023/04/12 04:49:29;;;;;;;;;;;;;;;;;;5093883;28;19950;-60
2023/04/12 04:51:55;;;;;;;;;;;;;;;;;;5092794;28;20340;-60
2023/04/12 04:54:21;;;;;;;;;;;;;;;;;;5092941;28;19939;-60
2023/04/12 04:56:47;;;;;;;;;;;;;;;;;;5093821;28;19920;-59
2023/04/12 04:59:13;;;;;;;;;;;;;;;;;;5092885;28;19918;-60
2023/04/12 05:01:39;;;;;;;;;;;;;;;;;;5085683;28;19912;-59
2023/04/12 05:04:05;;;;;;;;;;;;;;;;;;5086805;28;20368;-59
2023/04/12 05:06:31;;;;;;;;;;;;;;;;;;5076324;28;19959;-59
2023/04/12 05:08:57;;;;;;;;;;;;;;;;;;5086128;28;20009;-59
2023/04/12 05:11:23;;;;;;;;;;;;;;;;;;5088513;28;19963;-60
2023/04/12 05:13:49;;;;;;;;;;;;;;;;;;5087877;28;19917;-60
2023/04/12 05:16:15;;;;;;;;;;;;;;;;;;5086269;28;19947;-59
2023/04/12 05:18:41;;;;;;;;;;;;;;;;;;5091443;28;19923;-60
2023/04/12 05:21:07;;;;;;;;;;;;;;;;;;5090205;28;19912;-59
2023/04/12 05:23:33;;;;;;;;;;;;;;;;;;5084609;28;20008;-60
2023/04/12 05:25:59;;;;;;;;;;;;;;;;;;5094073;28;19912;-60
2023/04/12 05:28:25;;;;;;;;;;;;;;;;;;5079332;28;19992;-59
2023/04/12 05:30:51;;;;;;;;;;;;;;;;;;5080235;28;20007;-59
2023/04/12 05:33:17;;;;;;;;;;;;;;;;;;5074797;28;19913;-60
2023/04/12 05:35:43;;;;;;;;;;;;;;;;;;5080602;28;19959;-60
2023/04/12 05:38:09;;;;;;;;;;;;;;;;;;5078607;28;20395;-60
2023/04/12 05:40:35;;;;;;;;;;;;;;;;;;5073789;28;19915;-60
2023/04/12 05:43:01;;;;;;;;;;;;;;;;;;5073441;28;19944;-60
2023/04/12 05:45:27;;;;;;;;;;;;;;;;;;5079496;28;19920;-60
2023/04/12 05:47:53;;;;;;;;;;;;;;;;;;5081126;28;20383;-61
2023/04/12 05:50:19;;;;;;;;;;;;;;;;;;5081878;28;20272;-61
2023/04/12 05:52:47;;;;;;;;;;;;;;;;;;5089632;28;20006;-61
2023/04/12 05:55:13;;;;;;;;;;;;;;;;;;5076661;28;19939;-60
2023/04/12 05:57:39;;;;;;;;;;;;;;;;;;5090475;28;19964;-61
2023/04/12 06:00:12;;;;;;;;;;;;;;;;;;5080299;28;20458;-60
2023/04/12 06:02:38;;;;;;;;;;;;;;;;;;5088767;28;19916;-61
2023/04/12 06:05:04;;;;;;;;;;;;;;;;;;5084805;28;19995;-61
2023/04/12 06:07:30;;;;;;;;;;;;;;;;;;5090824;28;19919;-61
2023/04/12 06:09:56;;;;;;;;;;;;;;;;;;5080517;28;20033;-61
2023/04/12 06:12:22;;;;;;;;;;;;;;;;;;5080923;28;20054;-61
2023/04/12 06:14:48;;;;;;;;;;;;;;;;;;5072082;28;19908;-61
2023/04/12 06:17:14;;;;;;;;;;;;;;;;;;5086692;28;20403;-61
2023/04/12 06:19:40;;;;;;;;;;;;;;;;;;5093247;28;19962;-60
2023/04/12 06:22:06;;;;;;;;;;;;;;;;;;5092059;28;20433;-61
2023/04/12 06:24:32;;;;;;;;;;;;;;;;;;5092892;28;19908;-61
2023/04/12 06:26:57;;;;;;;;;;;;;;;;;;5091378;28;19948;-61
2023/04/12 06:29:23;;;;;;;;;;;;;;;;;;5090246;28;19966;-61
2023/04/12 06:31:49;;;;;;;;;;;;;;;;;;5088879;28;19920;-61
2023/04/12 06:34:16;;;;;;;;;;;;;;;;;;5072065;28;19931;-60
2023/04/12 06:36:42;;;;;;;;;;;;;;;;;;5080753;28;19923;-61
2023/04/12 06:39:10;;;;;;;;;;;;;;;;;;5087583;28;20031;-61
2023/04/12 06:41:36;;;;;;;;;;;;;;;;;;5087136;28;19912;-61
2023/04/12 06:44:02;;;;;;;;;;;;;;;;;;5092498;28;20314;-61
2023/04/12 06:46:28;;;;;;;;;;;;;;;;;;5091230;28;19918;-61
2023/04/12 06:48:54;;;;;;;;;;;;;;;;;;5089506;28;19912;-60
2023/04/12 06:51:20;;;;;;;;;;;;;;;;;;5079534;28;19962;-61
2023/04/12 06:53:46;;;;;;;;;;;;;;;;;;5089295;28;20360;-60
2023/04/12 06:56:12;;;;;;;;;;;;;;;;;;5077273;28;19999;-60
2023/04/12 06:58:38;;;;;;;;;;;;;;;;;;5076136;28;20011;-60
2023/04/12 07:01:04;;;;;;;;;;;;;;;;;;5080614;28;20318;-60
2023/04/12 07:03:32;;;;;;;;;;;;;;;;;;5091891;28;19912;-60
2023/04/12 07:05:59;;;;;;;;;;;;;;;;;;5092182;28;19952;-60
2023/04/12 07:08:25;;;;;;;;;;;;;;;;;;5084898;28;20287;-60
2023/04/12 07:10:51;;;;;;;;;;;;;;;;;;5083490;28;19955;-60
2023/04/12 07:13:17;;;;;;;;;;;;;;;;;;5086747;28;19918;-61
2023/04/12 07:15:45;;;;;;;;;;;;;;;;;;5086204;28;21539;-60
2023/04/12 07:18:11;;;;;;;;;;;;;;;;;;5088105;28;19939;-60
2023/04/12 07:20:37;;;;;;;;;;;;;;;;;;5086006;28;19963;-60
2023/04/12 07:23:03;;;;;;;;;;;;;;;;;;5089803;28;19912;-60
2023/04/12 07:25:29;;;;;;;;;;;;;;;;;;5085578;28;20123;-60
2023/04/12 07:27:55;;;;;;;;;;;;;;;;;;5081341;28;19919;-60
2023/04/12 07:30:22;;;;;;;;;;;;;;;;;;5077846;28;20015;-60
2023/04/12 07:32:47;;;;;;;;;;;;;;;;;;5086699;28;19923;-59
2023/04/12 07:35:13;;;;;;;;;;;;;;;;;;5086843;28;19970;-60
2023/04/12 07:37:39;;;;;;;;;;;;;;;;;;5075409;28;20109;-60
2023/04/12 07:40:05;;;;;;;;;;;;;;;;;;5075923;28;19926;-60
2023/04/12 07:42:31;;;;;;;;;;;;;;;;;;5080520;28;19919;-60
2023/04/12 07:44:57;;;;;;;;;;;;;;;;;;5077271;28;19958;-59
2023/04/12 07:47:23;;;;;;;;;;;;;;;;;;5094279;28;20489;-60
2023/04/12 07:49:49;;;;;;;;;;;;;;;;;;5082507;28;19912;-59
2023/04/12 07:52:15;;;;;;;;;;;;;;;;;;5094586;28;19912;-60
2023/04/12 07:54:41;;;;;;;;;;;;;;;;;;5090685;28;20342;-60
2023/04/12 07:57:08;;;;;;;;;;;;;;;;;;5085351;28;19968;-60
2023/04/12 07:59:35;;;;;;;;;;;;;;;;;;5087356;28;20283;-60
2023/04/12 08:02:02;;;;;;;;;;;;;;;;;;5095241;28;19918;-59
2023/04/12 08:04:27;;;;;;;;;;;;;;;;;;5092815;28;19951;-60
2023/04/12 08:06:53;;;;;;;;;;;;;;;;;;5092193;28;20372;-60
2023/04/12 08:09:19;;;;;;;;;;;;;;;;;;5092156;28;19961;-60
2023/04/12 08:11:46;;;;;;;;;;;;;;;;;;5091779;28;20435;-60
2023/04/12 08:14:12;;;;;;;;;;;;;;;;;;5076023;28;19960;-59
2023/04/12 08:16:38;;;;;;;;;;;;;;;;;;5094581;28;19967;-59
2023/04/12 08:19:03;;;;;;;;;;;;;;;;;;5089316;28;19924;-60
2023/04/12 08:21:29;;;;;;;;;;;;;;;;;;5074089;28;19966;-59
2023/04/12 08:23:55;;;;;;;;;;;;;;;;;;5085302;28;20000;-59
2023/04/12 08:26:21;;;;;;;;;;;;;;;;;;5091969;28;21708;-59
2023/04/12 08:28:47;;;;;;;;;;;;;;;;;;5076614;28;19912;-59
2023/04/12 08:31:13;;;;;;;;;;;;;;;;;;5094687;28;20003;-59
2023/04/12 08:33:39;;;;;;;;;;;;;;;;;;5088162;28;20006;-59
2023/04/12 08:36:05;;;;;;;;;;;;;;;;;;5090957;28;19931;-60
2023/04/12 08:38:31;;;;;;;;;;;;;;;;;;5091973;28;20331;-59
2023/04/12 08:40:57;;;;;;;;;;;;;;;;;;5091803;28;19958;-59
2023/04/12 08:43:23;;;;;;;;;;;;;;;;;;5085508;28;19970;-59
2023/04/12 08:45:49;;;;;;;;;;;;;;;;;;5081240;28;19951;-59
2023/04/12 08:48:16;;;;;;;;;;;;;;;;;;5091181;28;19999;-60
2023/04/12 08:50:42;;;;;;;;;;;;;;;;;;5077469;28;19912;-60
2023/04/12 08:53:08;;;;;;;;;;;;;;;;;;5080814;28;20018;-60
2023/04/12 08:55:34;;;;;;;;;;;;;;;;;;5085293;28;20002;-59
2023/04/12 08:58:02;;;;;;;;;;;;;;;;;;5078425;28;19922;-59
2023/04/12 09:00:28;;;;;;;;;;;;;;;;;;5085201;28;19967;-59
2023/04/12 09:02:54;;;;;;;;;;;;;;;;;;5080207;28;20343;-59
2023/04/12 09:05:21;;;;;;;;;;;;;;;;;;5078055;28;20003;-59
2023/04/12 09:07:47;;;;;;;;;;;;;;;;;;5088239;28;19920;-59
2023/04/12 09:10:13;;;;;;;;;;;;;;;;;;5088991;28;19959;-58
2023/04/12 09:12:39;;;;;;;;;;;;;;;;;;5074794;28;19916;-60
2023/04/12 09:15:07;;;;;;;;;;;;;;;;;;5082894;28;19928;-59
2023/04/12 09:17:35;;;;;;;;;;;;;;;;;;5082403;28;19916;-59
2023/04/12 09:20:01;;;;;;;;;;;;;;;;;;5086670;28;19923;-60
2023/04/12 09:22:27;;;;;;;;;;;;;;;;;;5085496;28;19913;-59
2023/04/12 09:24:53;;;;;;;;;;;;;;;;;;5084501;28;20327;-59
2023/04/12 09:27:22;;;;;;;;;;;;;;;;;;5082479;28;19916;-59
2023/04/12 09:29:51;;;;;;;;;;;;;;;;;;5075512;28;19966;-59
2023/04/12 09:32:17;;;;;;;;;;;;;;;;;;5085703;28;20011;-59
2023/04/12 09:34:43;;;;;;;;;;;;;;;;;;5080188;28;19955;-59
2023/04/12 09:37:09;;;;;;;;;;;;;;;;;;5087147;28;19912;-60
2023/04/12 09:39:35;;;;;;;;;;;;;;;;;;5081484;28;20029;-60
2023/04/12 09:42:01;;;;;;;;;;;;;;;;;;5091454;28;19949;-59
2023/04/12 09:44:30;;;;;;;;;;;;;;;;;;5090302;28;19912;-59
2023/04/12 09:46:57;;;;;;;;;;;;;;;;;;5089368;28;19916;-59
2023/04/12 09:49:23;;;;;;;;;;;;;;;;;;5086942;28;19935;-59
2023/04/12 09:51:49;;;;;;;;;;;;;;;;;;5087339;28;19943;-59
2023/04/12 09:54:15;;;;;;;;;;;;;;;;;;5089218;28;19926;-59
2023/04/12 09:56:41;;;;;;;;;;;;;;;;;;5078344;28;19948;-59
2023/04/12 09:59:08;;;;;;;;;;;;;;;;;;5092033;28;20282;-59
2023/04/12 10:01:35;;;;;;;;;;;;;;;;;;5088300;28;19912;-59
2023/04/12 10:04:01;;;;;;;;;;;;;;;;;;5083969;28;19920;-59
2023/04/12 10:06:26;;;;;;;;;;;;;;;;;;5083992;28;19947;-59
2023/04/12 10:08:52;;;;;;;;;;;;;;;;;;5080458;28;20594;-60
2023/04/12 10:11:18;;;;;;;;;;;;;;;;;;5087044;28;20371;-59
2023/04/12 10:13:45;;;;;;;;;;;;;;;;;;5086088;28;19920;-59
2023/04/12 10:16:11;;;;;;;;;;;;;;;;;;5086782;28;20337;-59
2023/04/12 10:18:37;;;;;;;;;;;;;;;;;;5091557;28;19965;-59
2023/04/12 10:21:03;;;;;;;;;;;;;;;;;;5078406;28;20008;-59
2023/04/12 10:23:28;;;;;;;;;;;;;;;;;;5071419;28;19912;-59
2023/04/12 10:25:55;;;;;;;;;;;;;;;;;;5072232;28;21881;-59
2023/04/12 10:28:21;;;;;;;;;;;;;;;;;;5081976;28;19923;-59
2023/04/12 10:30:49;;;;;;;;;;;;;;;;;;5082984;28;20547;-59
2023/04/12 10:33:15;;;;;;;;;;;;;;;;;;5089027;28;19958;-59
2023/04/12 10:35:41;;;;;;;;;;;;;;;;;;5092364;28;19989;-59
2023/04/12 10:38:07;;;;;;;;;;;;;;;;;;5082671;28;19955;-60
2023/04/12 10:40:34;;;;;;;;;;;;;;;;;;5074587;28;19918;-60
2023/04/12 10:43:00;;;;;;;;;;;;;;;;;;5092499;28;19912;-60
2023/04/12 10:45:26;;;;;;;;;;;;;;;;;;5091917;28;19923;-62
2023/04/12 10:47:53;;;;;;;;;;;;;;;;;;5091920;28;19965;-60
2023/04/12 10:50:19;;;;;;;;;;;;;;;;;;5083159;28;19915;-60
2023/04/12 10:52:45;;;;;;;;;;;;;;;;;;5092275;28;19966;-60
2023/04/12 10:55:11;;;;;;;;;;;;;;;;;;5089234;28;19951;-60
2023/04/12 10:57:37;;;;;;;;;;;;;;;;;;5092227;28;19909;-60
2023/04/12 11:00:04;;;;;;;;;;;;;;;;;;5091324;28;20129;-60
2023/04/12 11:02:33;;;;;;;;;;;;;;;;;;5090433;28;19922;-60
2023/04/12 11:04:59;;;;;;;;;;;;;;;;;;5092043;28;19914;-60
2023/04/12 11:07:24;;;;;;;;;;;;;;;;;;5091886;28;20003;-60
2023/04/12 11:09:50;;;;;;;;;;;;;;;;;;5090760;28;19916;-60
2023/04/12 11:12:17;;;;;;;;;;;;;;;;;;5090302;28;19923;-60
2023/04/12 11:14:43;;;;;;;;;;;;;;;;;;5090306;28;19915;-59
2023/04/12 11:17:09;;;;;;;;;;;;;;;;;;5091667;28;19912;-59
2023/04/12 11:19:35;;;;;;;;;;;;;;;;;;5091072;28;20287;-59
2023/04/12 11:22:02;;;;;;;;;;;;;;;;;;5091452;28;19908;-59
2023/04/12 11:24:28;;;;;;;;;;;;;;;;;;5091426;28;19915;-60
2023/04/12 11:26:55;;;;;;;;;;;;;;;;;;5088824;28;19934;-60
2023/04/12 11:29:20;;;;;;;;;;;;;;;;;;5074148;28;20415;-60
2023/04/12 11:31:46;;;;;;;;;;;;;;;;;;5088798;28;19998;-60
2023/04/12 11:34:12;;;;;;;;;;;;;;;;;;5091375;28;19912;-60
2023/04/12 11:36:38;;;;;;;;;;;;;;;;;;5090494;28;19981;-60
2023/04/12 11:39:04;;;;;;;;;;;;;;;;;;5081868;28;19951;-59
2023/04/12 11:41:30;;;;;;;;;;;;;;;;;;5084872;28;20435;-58
2023/04/12 11:43:56;;;;;;;;;;;;;;;;;;5091134;28;19915;-60
2023/04/12 11:46:22;;;;;;;;;;;;;;;;;;5089904;28;19943;-59
2023/04/12 11:48:48;;;;;;;;;;;;;;;;;;5089769;28;19916;-60
2023/04/12 11:51:13;;;;;;;;;;;;;;;;;;5072747;28;20493;-59
2023/04/12 11:53:39;;;;;;;;;;;;;;;;;;5089417;28;20015;-60
2023/04/12 11:56:05;;;;;;;;;;;;;;;;;;5081498;28;19916;-60
2023/04/12 11:58:31;;;;;;;;;;;;;;;;;;5077582;28;19955;-59
2023/04/12 12:00:58;;;;;;;;;;;;;;;;;;5086909;28;19919;-60
2023/04/12 12:03:24;;;;;;;;;;;;;;;;;;5081415;28;19971;-59
2023/04/12 12:05:50;;;;;;;;;;;;;;;;;;5077390;28;19952;-59
2023/04/12 12:08:16;;;;;;;;;;;;;;;;;;5081726;28;19965;-60
2023/04/12 12:10:42;;;;;;;;;;;;;;;;;;5084519;28;20550;-59
2023/04/12 12:13:08;;;;;;;;;;;;;;;;;;5085444;28;19964;-59
2023/04/12 12:15:34;;;;;;;;;;;;;;;;;;5089069;28;19987;-59
2023/04/12 12:18:01;;;;;;;;;;;;;;;;;;5078525;28;20686;-60
2023/04/12 12:20:27;;;;;;;;;;;;;;;;;;5083819;28;19919;-62
2023/04/12 12:22:53;;;;;;;;;;;;;;;;;;5080172;28;19943;-63
2023/04/12 12:25:18;;;;;;;;;;;;;;;;;;5085117;28;19919;-62
2023/04/12 12:27:47;;;;;;;;;;;;;;;;;;5089913;28;19955;-62
2023/04/12 12:30:13;;;;;;;;;;;;;;;;;;5086823;28;19935;-63
2023/04/12 12:32:39;;;;;;;;;;;;;;;;;;5094074;28;20391;-63
2023/04/12 12:35:05;;;;;;;;;;;;;;;;;;5089018;28;19947;-63
2023/04/12 12:37:31;;;;;;;;;;;;;;;;;;5090250;28;19991;-64
2023/04/12 12:39:57;;;;;;;;;;;;;;;;;;5091857;28;19920;-64
2023/04/12 12:42:23;;;;;;;;;;;;;;;;;;5092552;28;20399;-59
2023/04/12 12:44:49;;;;;;;;;;;;;;;;;;5090930;28;19919;-59
2023/04/12 12:47:15;;;;;;;;;;;;;;;;;;5087207;28;20349;-59
2023/04/12 12:49:41;;;;;;;;;;;;;;;;;;5085714;28;19961;-59
2023/04/12 12:52:06;;;;;;;;;;;;;;;;;;5083994;28;19916;-58
2023/04/12 12:54:33;;;;;;;;;;;;;;;;;;5089788;28;19912;-59
2023/04/12 12:56:58;;;;;;;;;;;;;;;;;;5091203;28;19947;-59
2023/04/12 12:59:25;;;;;;;;;;;;;;;;;;5077689;28;19955;-59
2023/04/12 13:01:51;;;;;;;;;;;;;;;;;;5093949;28;19951;-59
2023/04/12 13:04:17;;;;;;;;;;;;;;;;;;5088915;28;19955;-59
2023/04/12 13:06:42;;;;;;;;;;;;;;;;;;5074223;28;20470;-59
2023/04/12 13:09:08;;;;;;;;;;;;;;;;;;5073921;28;19909;-59
2023/04/12 13:11:34;;;;;;;;;;;;;;;;;;5088465;28;19959;-60
2023/04/12 13:14:00;;;;;;;;;;;;;;;;;;5080258;28;19920;-60
2023/04/12 13:16:26;;;;;;;;;;;;;;;;;;5088204;28;19958;-62
2023/04/12 13:18:52;;;;;;;;;;;;;;;;;;5093611;28;19961;-62
2023/04/12 13:21:18;;;;;;;;;;;;;;;;;;5079950;28;19943;-62
2023/04/12 13:23:44;;;;;;;;;;;;;;;;;;5078449;28;20420;-62
2023/04/12 13:26:10;;;;;;;;;;;;;;;;;;5074670;28;19913;-65
2023/04/12 13:28:36;;;;;;;;;;;;;;;;;;5090730;28;19959;-65
2023/04/12 13:31:02;;;;;;;;;;;;;;;;;;5086681;28;19912;-65
2023/04/12 13:33:28;;;;;;;;;;;;;;;;;;5077759;28;19919;-65
2023/04/12 13:35:54;;;;;;;;;;;;;;;;;;5073484;28;19916;-62
2023/04/12 13:38:20;;;;;;;;;;;;;;;;;;5091888;28;20437;-65
2023/04/12 13:40:46;;;;;;;;;;;;;;;;;;5093314;28;20368;-65
2023/04/12 13:43:12;;;;;;;;;;;;;;;;;;5092008;28;20016;-64
2023/04/12 13:45:38;;;;;;;;;;;;;;;;;;5087241;28;20028;-65
2023/04/12 13:48:04;;;;;;;;;;;;;;;;;;5092522;28;19950;-65
2023/04/12 13:50:29;;;;;;;;;;;;;;;;;;5093050;28;19956;-65
2023/04/12 13:52:55;;;;;;;;;;;;;;;;;;5091762;28;20427;-65
2023/04/12 13:55:21;;;;;;;;;;;;;;;;;;5092887;28;19955;-65
2023/04/12 13:57:47;;;;;;;;;;;;;;;;;;5093181;28;19965;-65
2023/04/12 14:00:14;;;;;;;;;;;;;;;;;;5089140;28;20007;-65
2023/04/12 14:02:40;;;;;;;;;;;;;;;;;;5071570;28;20891;-64
2023/04/12 14:05:06;;;;;;;;;;;;;;;;;;5080384;28;19963;-64
2023/04/12 14:07:32;;;;;;;;;;;;;;;;;;5089689;28;20383;-64
2023/04/12 14:09:58;;;;;;;;;;;;;;;;;;5092606;28;19981;-64
2023/04/12 14:12:24;;;;;;;;;;;;;;;;;;5086340;28;19917;-65
2023/04/12 14:14:50;;;;;;;;;;;;;;;;;;5078541;28;20007;-64
2023/04/12 14:17:16;;;;;;;;;;;;;;;;;;5080567;28;19927;-65
2023/04/12 14:19:42;;;;;;;;;;;;;;;;;;5071744;28;19919;-64
2023/04/12 14:22:08;;;;;;;;;;;;;;;;;;5074778;28;19948;-64
2023/04/12 14:24:34;;;;;;;;;;;;;;;;;;5075094;28;20010;-65
2023/04/12 14:27:01;;;;;;;;;;;;;;;;;;5072540;28;19916;-64
2023/04/12 14:29:27;;;;;;;;;;;;;;;;;;5072652;28;19912;-65
2023/04/12 14:31:52;;;;;;;;;;;;;;;;;;5071775;28;19955;-65
2023/04/12 14:34:18;;;;;;;;;;;;;;;;;;5078321;28;19927;-64
2023/04/12 14:36:44;;;;;;;;;;;;;;;;;;5076751;28;19963;-65
2023/04/12 14:39:10;;;;;;;;;;;;;;;;;;5078226;28;19931;-65
2023/04/12 14:41:36;;;;;;;;;;;;;;;;;;5088005;28;19935;-65
2023/04/12 14:44:02;;;;;;;;;;;;;;;;;;5073630;28;20379;-65
2023/04/12 14:46:30;;;;;;;;;;;;;;;;;;5089887;28;20038;-65
2023/04/12 14:48:58;;;;;;;;;;;;;;;;;;5091650;28;20010;-65
2023/04/12 14:51:24;;;;;;;;;;;;;;;;;;5070697;28;19912;-65
2023/04/12 14:53:50;;;;;;;;;;;;;;;;;;5076453;28;20011;-65
2023/04/12 14:56:17;;;;;;;;;;;;;;;;;;5091676;28;20028;-65
2023/04/12 14:58:43;;;;;;;;;;;;;;;;;;5090345;28;19919;-64
2023/04/12 15:01:09;;;;;;;;;;;;;;;;;;5086042;28;20014;-65
2023/04/12 15:03:35;;;;;;;;;;;;;;;;;;5082083;28;20003;-65
2023/04/12 15:06:00;;;;;;;;;;;;;;;;;;5074503;28;19916;-65
2023/04/12 15:08:27;;;;;;;;;;;;;;;;;;5084184;28;20348;-65
2023/04/12 15:10:53;;;;;;;;;;;;;;;;;;5073600;28;19920;-64
2023/04/12 15:13:21;;;;;;;;;;;;;;;;;;5078365;28;19966;-64
2023/04/12 15:15:46;;;;;;;;;;;;;;;;;;5079388;28;19947;-64
2023/04/12 15:18:13;;;;;;;;;;;;;;;;;;5089236;28;20313;-64
2023/04/12 15:20:39;;;;;;;;;;;;;;;;;;5086174;28;19990;-64
2023/04/12 15:23:05;;;;;;;;;;;;;;;;;;5086044;28;19912;-64
2023/04/12 15:25:32;;;;;;;;;;;;;;;;;;5077811;28;20434;-64
2023/04/12 15:27:58;;;;;;;;;;;;;;;;;;5074247;28;19966;-64
2023/04/12 15:30:24;;;;;;;;;;;;;;;;;;5083283;28;19948;-64
2023/04/12 15:32:49;;;;;;;;;;;;;;;;;;5081156;28;20011;-64
2023/04/12 15:35:16;;;;;;;;;;;;;;;;;;5091588;28;19918;-64
2023/04/12 15:37:43;;;;;;;;;;;;;;;;;;5084943;28;19999;-64
2023/04/12 15:40:12;;;;;;;;;;;;;;;;;;5078454;28;19916;-64
2023/04/12 15:42:38;;;;;;;;;;;;;;;;;;5087024;28;20443;-64
2023/04/12 15:45:04;;;;;;;;;;;;;;;;;;5091161;28;20006;-64
2023/04/12 15:47:30;;;;;;;;;;;;;;;;;;5090403;28;19908;-63
2023/04/12 15:49:56;;;;;;;;;;;;;;;;;;5087870;28;20459;-64
2023/04/12 15:52:22;;;;;;;;;;;;;;;;;;5082887;28;20003;-63
2023/04/12 15:54:48;;;;;;;;;;;;;;;;;;5085447;28;19923;-63
2023/04/12 15:57:14;;;;;;;;;;;;;;;;;;5083729;28;19970;-64
2023/04/12 15:59:40;;;;;;;;;;;;;;;;;;5083469;28;20357;-63
2023/04/12 16:02:08;;;;;;;;;;;;;;;;;;5083819;28;20331;-63
2023/04/12 16:04:34;;;;;;;;;;;;;;;;;;5086522;28;19919;-63
2023/04/12 16:07:02;;;;;;;;;;;;;;;;;;5090790;28;20015;-63
2023/04/12 16:09:28;;;;;;;;;;;;;;;;;;5086853;28;19982;-63
2023/04/12 16:11:56;;;;;;;;;;;;;;;;;;5075445;28;20385;-63
2023/04/12 16:14:22;;;;;;;;;;;;;;;;;;5089070;28;19919;-63
2023/04/12 16:16:49;;;;;;;;;;;;;;;;;;5089074;28;19968;-63
2023/04/12 16:19:14;;;;;;;;;;;;;;;;;;5086133;28;19916;-62
2023/04/12 16:21:40;;;;;;;;;;;;;;;;;;5086704;28;19961;-62
2023/04/12 16:24:06;;;;;;;;;;;;;;;;;;5089051;28;19945;-62
2023/04/12 16:26:33;;;;;;;;;;;;;;;;;;5092129;28;19923;-62
2023/04/12 16:29:00;;;;;;;;;;;;;;;;;;5095078;28;19912;-62
2023/04/12 16:31:26;;;;;;;;;;;;;;;;;;5094248;28;20359;-62
2023/04/12 16:33:52;;;;;;;;;;;;;;;;;;5093509;28;19966;-62
2023/04/12 16:36:20;;;;;;;;;;;;;;;;;;5090035;28;19951;-62
2023/04/12 16:38:48;;;;;;;;;;;;;;;;;;5088394;28;20386;-62